createdAt,value
2024-02-18T16:57:59.093Z,70.59
2024-02-18T17:00:56.486Z,71.59
2024-02-18T17:03:43.661Z,72.55
2024-02-18T17:06:33.384Z,72.40
2024-02-18T17:09:19.718Z,72.16
2024-02-18T17:12:09.029Z,71.50
2024-02-18T17:14:56.498Z,71.35
2024-02-18T17:17:45.451Z,71.41
2024-02-18T17:20:32.274Z,70.80
2024-02-18T17:23:24.379Z,70.89
2024-02-18T17:26:12.115Z,70.13
2024-02-18T17:28:59.071Z,70.30
2024-02-18T17:32:16.908Z,69.67
2024-02-18T17:35:08.146Z,70.04
2024-02-18T17:37:55.648Z,70.00
2024-02-18T17:40:55.160Z,68.16
2024-02-18T17:43:46.425Z,68.89
2024-02-18T17:46:35.774Z,68.83
2024-02-18T17:49:26.629Z,68.29
2024-02-18T17:52:13.639Z,68.41
2024-02-18T17:55:00.532Z,68.74
2024-02-18T17:57:54.150Z,68.40
2024-02-18T18:00:43.118Z,68.43
2024-02-18T18:03:30.602Z,67.56
2024-02-18T18:06:18.388Z,67.36
2024-02-18T18:09:04.609Z,67.81
2024-02-18T18:11:51.370Z,67.57
2024-02-18T18:14:37.702Z,67.65
2024-02-18T18:17:26.294Z,67.85
2024-02-18T18:20:13.331Z,67.91
2024-02-18T18:23:01.210Z,67.08
2024-02-18T18:26:00.378Z,66.17
2024-02-18T18:28:54.202Z,66.18
2024-02-18T18:31:44.654Z,66.81
2024-02-18T18:34:33.044Z,66.02
2024-02-18T18:37:19.711Z,66.73
2024-02-18T18:40:09.973Z,66.18
2024-02-18T18:42:56.542Z,66.75
2024-02-18T18:45:44.281Z,67.22
2024-02-18T18:48:32.740Z,66.45
2024-02-18T18:51:20.084Z,67.05
2024-02-18T18:54:06.771Z,66.67
2024-02-18T18:56:54.976Z,66.71
2024-02-18T18:59:41.149Z,67.11
2024-02-18T19:02:27.957Z,66.90
2024-02-18T19:05:16.327Z,66.60
2024-02-18T19:08:02.870Z,65.95
2024-02-18T19:10:49.567Z,66.72
2024-02-18T19:13:42.505Z,65.96
2024-02-18T19:16:36.374Z,66.33
2024-02-18T19:19:24.566Z,66.71
2024-02-18T19:22:16.312Z,66.99
2024-02-18T19:25:04.317Z,66.59
2024-02-18T19:27:50.464Z,66.92
2024-02-18T19:30:37.009Z,66.80
2024-02-18T19:33:28.915Z,65.97
2024-02-18T19:36:17.082Z,66.37
2024-02-18T19:39:05.462Z,66.84
2024-02-18T19:41:54.190Z,67.42
2024-02-18T19:44:42.617Z,68.15
2024-02-18T19:47:29.777Z,68.67
2024-02-18T19:50:16.007Z,69.47
2024-02-18T19:53:03.056Z,70.45
2024-02-18T19:55:49.871Z,71.35
2024-02-18T19:58:39.180Z,72.07
2024-02-18T20:01:25.885Z,72.93
2024-02-18T20:04:14.645Z,74.68
2024-02-18T20:07:01.585Z,75.27
2024-02-18T20:09:49.818Z,76.23
2024-02-18T20:12:37.303Z,77.10
2024-02-18T20:15:24.171Z,77.63
2024-02-18T20:18:10.450Z,78.47
2024-02-18T20:21:01.681Z,79.16
2024-02-18T20:23:47.903Z,79.75
2024-02-18T20:26:40.107Z,80.28
2024-02-18T20:29:26.684Z,80.95
2024-02-18T20:32:14.471Z,81.14
2024-02-18T20:35:00.879Z,82.10
2024-02-18T20:37:52.857Z,82.63
2024-02-18T20:40:40.328Z,83.16
2024-02-18T20:43:28.116Z,83.28
2024-02-18T20:46:17.954Z,83.18
2024-02-18T20:49:07.870Z,83.34
2024-02-18T20:51:54.743Z,83.46
2024-02-18T20:54:42.379Z,84.04
2024-02-18T20:57:33.483Z,84.80
2024-02-18T21:00:24.478Z,85.94
2024-02-18T21:03:11.015Z,85.98
2024-02-18T21:05:59.016Z,86.09
2024-02-18T21:08:46.521Z,86.62
2024-02-18T21:11:32.809Z,87.29
2024-02-18T21:14:21.492Z,87.56
2024-02-18T21:17:07.809Z,88.15
2024-02-18T21:19:54.064Z,88.91
2024-02-18T21:22:40.456Z,88.96
2024-02-18T21:25:29.429Z,88.93
2024-02-18T21:28:18.419Z,89.13
2024-02-18T21:31:05.037Z,89.90
2024-02-18T21:33:52.240Z,90.88
2024-02-18T21:39:48.686Z,91.56
2024-02-18T21:42:35.820Z,91.48
2024-02-18T21:45:22.740Z,91.47
2024-02-18T21:48:09.471Z,92.10
2024-02-18T21:50:56.485Z,91.71
2024-02-18T21:53:44.831Z,91.93
2024-02-18T21:56:32.049Z,92.41
